x

Halibut Bank (46146) Wave Buoy

12:00pm - Tue 1st Sep 2015 All times are PDT. -7 hours from GMT.

  • Sig Wave height 1.0ft
  • Peak Period 2s
  • Wind
    18mph, 22mph gusts
  • Sea Temp 55°f
  • 空気 Temp 58°f
  • Sea Pressure 1008.7mb
  • Halibut Bank
  • Halibut Bank

More Historic Weather Station data

Upgrade to MSW Pro to gain access to the past 30 days of data for over 8000 Wavebouys and Weather Stations around the globe.

Join Pro

Comparision Forecast

View Surf forecast
   
Tue 09/01 12:00pm 1ft 2s 18 22 mph 1008.7mb 55f 58f
11:00am 0.7ft 3s 11 13 mph 1009mb 55f 58f
10:00am 0.3ft 2s 9 11 mph 1009mb 55f 58f
9:00am 0.3ft 3s 4 9 mph 1009.1mb 55f 57f
8:00am 0.7ft 3s 7 11 mph 1009.1mb 55f 57f
7:00am 0.7ft 3s 4 9 mph 1008.9mb 55f 58f
6:00am 1ft 3s 4 9 mph 1008.8mb 55f 57f
5:00am 1.3ft 4s 9
mph
1009.3mb 55f 57f
4:00am 1.6ft 4s 4 9 mph 1009.5mb 55f 58f
3:00am 1.6ft 4s 7 9 mph 1009.5mb 56f 58f
2:00am 2.5ft 4s 4 11 mph 1009.4mb 56f 58f
1:00am 2.5ft 4s 7 9 mph 1008.9mb 56f 57f
12:00am 2.5ft 4s 11 13 mph 1008.4mb 56f 57f
Mon 08/31 11:00pm 2.5ft 4s 16 20 mph 1007.9mb 55f 58f
10:00pm 2.5ft 4s 4 7 mph 1007.8mb 55f 58f
9:00pm 2.5ft 4s 13 16 mph 1006.9mb 55f 59f
8:00pm 2ft 4s 18 20 mph 1006.8mb 56f 60f
7:00pm 2ft 3s 13 16 mph 1007.2mb 56f 59f
6:00pm 2ft 4s 13 18 mph 1007.6mb 56f 61f
5:00pm 2.5ft 4s 16 18 mph 1007.6mb 56f 60f
3:00pm 3.5ft 4s 20 22 mph 1008.2mb 57f 58f
2:00pm 3ft 5s 20 22 mph 1008.8mb 58f 59f
1:00pm 3ft 4s 16 18 mph 1009.6mb 58f 58f
12:00pm 3ft 4s 20 25 mph 1009.6mb 58f 58f
11:00am 3ft 4s 18 20 mph 1010mb 57f 58f
10:00am 2.5ft 5s 18 20 mph 1009.9mb 57f 58f
9:00am 2.5ft 4s 9 11 mph 1009.8mb 57f 58f
8:00am 2.5ft 4s 16 18 mph 1009.6mb 56f 58f
7:00am 2.5ft 4s 16 18 mph 1009.3mb 57f 59f
6:00am 2ft 4s 18 22 mph 1008.9mb 58f 59f
5:00am 2.5ft 3s 18 20 mph 1009.1mb 59f 60f
4:00am 2.5ft 4s 18 25 mph 1009.2mb 58f 60f
3:00am 3ft 4s 22 25 mph 1009.3mb 60f 59f
2:00am 3.5ft 4s 22 27 mph 1009.8mb 60f 59f
1:00am 3ft 4s 27 31 mph 1010.1mb 60f 59f
12:00am 2.5ft 3s 22 29 mph 1010.1mb 60f 60f
Sun 08/30 11:00pm 2ft 3s 20 22 mph 1010.3mb 60f 62f
10:00pm 1.3ft 3s 18 20 mph 1010.9mb 60f 61f
9:00pm 1.6ft 3s 11 16 mph 1011.3mb 60f 61f
8:00pm 1.6ft 3s 18 20 mph 1011mb 60f 61f
7:00pm 1.3ft 3s 13 18 mph 1010.9mb 60f 61f
6:00pm 1.6ft 3s 11 13 mph 1011.1mb 61f 61f
5:00pm 2ft 3s 16 18 mph 1011.1mb 61f 61f
4:00pm 2ft 3s 18 22 mph 1010.8mb 61f 62f
3:00pm 2ft 3s 16 20 mph 1011.1mb 62f 61f
2:00pm 1.6ft 3s 16 20 mph 1011.3mb 62f 61f
1:00pm 1.6ft 3s 16 20 mph 1011.3mb 62f 60f
12:00pm 1.6ft 3s 13 18 mph 1011.1mb 62f 60f
11:00am 1.3ft 3s 13 16 mph 1010.6mb 62f 59f
10:00am 1ft 3s 11 13 mph 1010.3mb 62f 59f
9:00am 1ft 3s 13 16 mph 1009.2mb 62f 59f
8:00am 1ft 3s 7 9 mph 1008.5mb 62f 58f
7:00am 1.3ft 3s 7 9 mph 1007.6mb 62f 58f
6:00am 1.3ft 3s 11 16 mph 1007mb 61f 58f
5:00am 1.3ft 3s 13 16 mph 1006.3mb 61f 60f
4:00am 1ft 3s 13 16 mph 1006mb 61f 60f
3:00am 1.3ft 3s 9 11 mph 1005.8mb 62f 60f
2:00am 1.6ft 3s 9 11 mph 1005.5mb 62f 60f
1:00am 2ft 4s 16 18 mph 1005.4mb 62f 60f
12:00am 2ft 4s 16 18 mph 1005.2mb 63f 61f
Sat 08/29 11:00pm 2.5ft 4s 18 22 mph 1004.7mb 62f 62f
10:00pm 3ft 4s 20 22 mph 1004.4mb 63f 63f
9:00pm 2.5ft 4s 22 29 mph 1003.7mb 63f 63f
8:00pm 2.5ft 4s 22 27 mph 1003.4mb 61f 62f
7:00pm 2.5ft 4s 22 27 mph 1002.7mb 60f 61f
6:00pm 2.5ft 4s 18 25 mph 1003.1mb 60f 61f
5:00pm 2.5ft 5s 9 11 mph 1003.1mb 61f 61f
4:00pm 3.5ft 5s 18 25 mph 1002.5mb 61f 64f
3:00pm 5ft 6s 20 25 mph 1001.4mb 62f 65f
2:00pm 5ft 6s 27 34 mph 999.1mb 62f 64f
1:00pm 5.5ft 5s 31 38 mph 997mb 62f 65f
12:00pm 6ft 5s 34 40 mph 995mb 61f 65f
11:00am 5ft 5s 29 38 mph 994.3mb 61f 65f
10:00am 4.5ft 5s 29 36 mph 996.3mb 61f 64f
9:00am 3ft 3s 29 40 mph 996.4mb 62f 64f
8:00am 1.6ft 3s 25 31 mph 996mb 62f 63f
7:00am 2ft 3s 13 20 mph 996.2mb 62f 62f
6:00am 1.3ft 3s 18 25 mph 997.5mb 62f 64f
5:00am 1.6ft 3s 11 16 mph 997.2mb 62f 66f
4:00am 1.3ft 3s 16 18 mph 999.9mb 62f 64f
3:00am 1.3ft 3s 16 18 mph 1001.1mb 62f 64f
2:00am 1ft 3s 9 11 mph 1002.1mb 63f 65f
1:00am 1ft 2s 11 16 mph 1003.9mb 63f 65f
12:00am 1ft 2s 13 16 mph 1005.2mb 63f 65f
Fri 08/28 11:00pm 1ft 2s 13 16 mph 1006.8mb 62f 64f
10:00pm 0.7ft 2s 11 13 mph 1007.9mb 62f 64f
9:00pm 0.7ft 6s 11 13 mph 1008.6mb 62f 64f